Latest Weather Observations for Horsham AWS

IDV60801

Issued at 7:35 pm EDT Sunday 23 November 2014 (issued every 30 minutes, with the page automatically refreshed every 10 minutes)

About weather observations | Map of weather stations | Latest weather observations for VIC | Other Formats
Station Details ID: 079100 Name: HORSHAM AERODROME Lat: -36.67 Lon: 142.17 Height: 133.8 m
Data from the previous 72 hours. | See also: Recent months at Horsham AWS
Date/Time
EDT
Temp
°C
App
Temp
°C
Dew
Point
Rel
Hum
%
Delta-T
°C
Wind Press
QNH
hPa
Press
MSL
hPa
Rain
since 9 am
mm
Dir
 
Spd
km/h
Gust
km/h
Spd
kts
Gust
kts
23/07:30pm 25.6 21.0 3.5 24 11.0 W 17 22 9 12 1011.8 1011.6 0.0
23/07:00pm 26.1 22.2 3.4 23 11.3 W 13 17 7 9 1011.1 1010.9 0.0
23/06:30pm 26.5 21.8 3.1 22 11.6 SW 17 20 9 11 1010.4 1010.1 0.0
23/06:00pm 27.0 22.4 3.5 22 11.8 SW 17 24 9 13 1009.9 1009.6 0.0
23/05:30pm 27.4 22.0 4.5 23 11.7 WSW 22 28 12 15 1010.8 1010.6 0.0
23/05:00pm 27.6 22.0 3.3 21 12.2 W 22 30 12 16 1011.3 1011.1 0.0
23/04:30pm 28.0 22.2 4.3 22 12.1 WNW 24 33 13 18 1011.6 1011.4 0.0
23/04:00pm 28.9 23.0 3.7 20 12.8 WNW 24 33 13 18 1011.4 1011.2 0.0
23/03:30pm 28.5 23.4 4.1 21 12.5 NW 20 30 11 16 1011.3 1011.1 0.0
23/03:00pm 29.0 23.6 4.5 21 12.6 W 22 35 12 19 1011.0 1010.8 0.0
23/02:30pm 27.7 22.3 4.7 23 11.8 WNW 22 28 12 15 1011.3 1011.1 0.0
23/02:00pm 27.0 22.3 5.3 25 11.2 WNW 19 28 10 15 1011.3 1011.1 0.0
23/01:30pm 25.7 21.1 5.8 28 10.3 W 19 35 10 19 1011.8 1011.6 0.0
23/01:00pm 25.7 20.1 5.3 27 10.5 WNW 24 33 13 18 1011.9 1011.7 0.0
23/12:30pm 24.9 20.5 6.6 31 9.6 NW 19 28 10 15 1011.8 1011.6 0.0
23/12:00pm 23.8 21.0 7.0 34 8.8 W 11 19 6 10 1011.9 1011.7 0.0
23/11:30am 22.1 19.7 8.6 42 7.2 SW 11 19 6 10 1012.0 1011.8 0.0
23/11:00am 21.4 19.6 9.6 47 6.4 S 9 15 5 8 1012.2 1012.0 0.0
23/10:30am 19.7 18.0 9.9 53 5.3 SW 9 15 5 8 1012.2 1012.0 0.0
23/10:00am 18.8 17.6 11.6 63 4.0 S 9 17 5 9 1012.5 1012.3 0.0
23/09:30am 17.2 15.6 11.5 69 3.1 SSW 11 15 6 8 1012.9 1012.7 0.0
23/09:00am 15.8 13.8 11.6 76 2.3 SW 13 17 7 9 1013.4 1013.2 0.0
23/08:40am 14.7 12.4 11.8 83 1.6 SW 15 19 8 10 1013.6 1013.3 0.0
23/08:30am 13.8 11.0 11.5 86 1.2 SW 17 22 9 12 1013.3 1013.1 0.0
23/08:27am 13.8 11.1 11.8 88 1.1 SW 17 20 9 11 1013.3 1013.1 0.0
23/08:00am 12.6 9.4 11.3 92 0.7 SW 19 22 10 12 1013.0 1012.8 0.0
23/07:47am 12.5 9.3 11.2 92 0.7 SW 19 20 10 11 1012.8 1012.6 0.0
23/07:30am 12.7 9.9 11.4 92 0.7 SW 17 20 9 11 1012.7 1012.5 0.0
23/07:00am 11.9 10.5 10.8 93 0.6 WSW 9 15 5 8 1012.2 1012.0 0.0
23/06:30am 10.3 9.4 9.2 93 0.5 SW 4 7 2 4 1011.8 1011.6 0.0
23/06:00am 10.3 9.0 9.2 93 0.6 S 6 7 3 4 1011.3 1011.1 0.0
23/05:30am 10.9 9.2 9.7 92 0.6 SSW 9 9 5 5 1011.1 1010.9 0.0
23/05:00am 11.7 9.4 10.4 92 0.7 SSW 13 15 7 8 1010.8 1010.6 0.0
23/04:30am 12.2 10.3 10.6 90 0.8 SW 11 13 6 7 1010.8 1010.6 0.0
23/04:00am 13.1 10.6 11.2 88 1.0 SW 15 19 8 10 1010.5 1010.2 0.0
23/03:30am 13.6 11.2 11.5 87 1.1 SW 15 19 8 10 1010.4 1010.1 0.0
23/03:00am 13.8 11.4 11.3 85 1.3 WSW 15 17 8 9 1010.6 1010.4 0.0
23/02:30am 14.4 12.7 11.2 81 1.7 SW 11 15 6 8 1010.4 1010.1 0.0
23/02:00am 15.5 12.8 11.7 78 2.1 SW 17 19 9 10 1010.3 1010.0 0.0
23/01:30am 16.3 13.3 11.9 75 2.4 SW 19 22 10 12 1010.4 1010.1 0.0
23/01:00am 17.2 13.7 12.1 72 2.8 SW 22 28 12 15 1010.3 1010.0 0.0
23/12:30am 18.2 14.8 12.6 70 3.1 SW 22 26 12 14 1010.4 1010.1 0.0
23/12:00am 18.3 16.6 14.6 79 2.2 W 17 24 9 13 1010.1 1009.8 0.0
 
Date/Time
EDT
Temp
°C
App
Temp
°C
Dew
Point
Rel
Hum
%
Delta-T
°C
Wind Press
QNH
hPa
Press
MSL
hPa
Rain
since 9 am
mm
Dir
 
Spd
km/h
Gust
km/h
Spd
kts
Gust
kts
22/11:30pm 18.3 17.9 16.1 87 1.3 W 13 19 7 10 1009.9 1009.6 0.0
22/11:00pm 17.7 17.5 15.7 88 1.2 WNW 11 15 6 8 1009.7 1009.4 0.0
22/10:30pm 18.6 17.4 16.2 86 1.4 NW 17 20 9 11 1009.6 1009.3 0.0
22/10:00pm 18.5 18.1 16.3 87 1.3 NW 13 17 7 9 1009.0 1008.7 0.0
22/09:30pm 18.8 17.7 16.4 86 1.4 NNW 17 26 9 14 1008.7 1008.4 0.0
22/09:00pm 19.0 18.0 16.6 86 1.5 NW 17 24 9 13 1008.7 1008.4 0.0
22/08:30pm 19.8 18.0 16.1 79 2.2 NNW 20 30 11 16 1009.0 1008.7 0.0
22/08:00pm 21.4 20.7 15.5 69 3.5 NW 13 22 7 12 1007.1 1006.8 0.0
22/07:30pm 22.4 18.6 14.8 62 4.5 NNW 28 37 15 20 1007.5 1007.2 0.0
22/07:00pm 23.1 18.8 14.4 58 5.2 NW 30 39 16 21 1006.9 1006.6 0.0
22/06:47pm 23.4 18.4 14.1 56 5.5 NNW 33 48 18 26 1007.7 1007.4 0.0
22/06:30pm 23.4 21.1 14.1 56 5.5 N 19 30 10 16 1006.8 1006.5 0.0
22/06:00pm 23.4 18.4 13.3 53 5.9 NNW 32 43 17 23 1006.8 1006.5 0.0
22/05:30pm 25.7 19.9 11.5 41 8.1 NNW 33 43 18 23 1007.0 1006.7 0.0
22/05:00pm 25.4 17.2 10.4 39 8.4 NNW 44 59 24 32 1007.1 1006.8 0.0
22/04:53pm 25.9 18.3 10.5 38 8.7 NNW 41 59 22 32 1006.9 1006.6 0.0
22/04:30pm 26.9 18.0 9.3 33 9.7 N 46 59 25 32 1007.0 1006.7 0.0
22/04:00pm 30.1 22.0 10.1 29 11.4 NNW 43 56 23 30 1006.3 1006.0 0.0
22/03:44pm 27.7 20.1 10.4 34 9.8 NNW 41 59 22 32 1006.6 1006.3 0.0
22/03:30pm 28.2 20.0 10.4 33 10.1 NNW 44 57 24 31 1006.4 1006.1 0.0
22/03:03pm 30.6 22.4 10.5 29 11.5 N 44 63 24 34 1006.6 1006.3 0.0
22/03:00pm 29.6 21.0 10.2 30 11.1 N 46 63 25 34 1006.6 1006.3 0.0
22/02:30pm 29.8 21.9 10.9 31 10.9 N 43 61 23 33 1007.1 1006.8 0.0
22/02:04pm 29.3 21.2 10.9 32 10.6 NNW 44 63 24 34 1007.7 1007.4 0.0
22/02:00pm 28.7 20.1 10.4 32 10.4 NNW 46 63 25 34 1007.6 1007.3 0.0
22/01:40pm 29.4 21.0 9.5 29 11.2 NNW 44 69 24 37 1007.6 1007.3 0.0
22/01:30pm 28.7 20.4 9.4 30 10.8 NNW 43 59 23 32 1007.8 1007.5 0.0
22/01:19pm 28.6 21.2 9.8 31 10.6 N 39 57 21 31 1007.6 1007.3 0.0
22/01:00pm 27.8 20.5 8.6 30 10.6 N 37 48 20 26 1008.2 1007.9 0.0
22/12:30pm 27.4 18.9 6.8 27 11.0 N 41 54 22 29 1008.5 1008.2 0.0
22/12:00pm 27.5 18.7 5.7 25 11.4 N 41 59 22 32 1008.9 1008.6 0.0
22/11:58am 26.7 18.2 5.1 25 11.1 N 39 59 21 32 1008.8 1008.5 0.0
22/11:30am 25.8 18.1 5.4 27 10.5 N 35 52 19 28 1009.2 1008.9 0.0
22/11:00am 23.8 16.6 5.2 30 9.4 NNE 32 46 17 25 1009.6 1009.3 0.0
22/10:47am 23.0 16.4 5.9 33 8.7 NNE 30 43 16 23 1009.2 1008.9 0.0
22/10:30am 22.0 18.0 6.7 37 7.9 NNE 17 22 9 12 1011.0 1010.8 0.0
22/10:00am 20.2 18.3 7.6 44 6.5 ENE 7 9 4 5 1011.3 1011.1 0.0
22/09:30am 19.7 16.5 6.8 43 6.5 NNE 13 17 7 9 1010.8 1010.6 0.0
22/09:00am 19.5 15.6 7.3 45 6.2 NE 17 20 9 11 1010.2 1009.9 0.0
22/08:30am 19.2 14.8 7.6 47 6.0 ENE 20 26 11 14 1009.9 1009.6 0.0
22/08:00am 16.6 12.6 8.1 57 4.3 ESE 19 22 10 12 1010.2 1009.9 0.0
22/07:30am 14.3 11.2 8.9 70 2.8 SE 15 20 8 11 1010.1 1009.8 0.0
22/07:00am 13.1 10.9 9.2 77 2.0 SE 11 15 6 8 1010.1 1009.8 0.0
22/06:30am 11.1 8.6 8.1 82 1.5 SE 11 13 6 7 1009.6 1009.3 0.0
22/06:00am 12.2 8.3 8.5 78 1.9 E 19 20 10 11 1008.6 1008.3 0.0
22/05:30am 11.8 8.3 8.6 81 1.6 E 17 19 9 10 1008.9 1008.6 0.0
22/05:00am 11.3 7.7 8.2 81 1.5 E 17 20 9 11 1008.8 1008.5 0.0
22/04:30am 10.6 7.2 7.7 82 1.4 ESE 15 17 8 9 1009.0 1008.7 0.0
22/04:00am 10.2 5.8 6.5 78 1.7 E 19 19 10 10 1009.0 1008.7 0.0
22/03:30am 9.5 5.4 6.0 79 1.6 E 17 19 9 10 1009.3 1009.0 0.0
22/03:00am 10.3 7.4 4.9 69 2.5 NE 9 11 5 6 1009.4 1009.1 0.0
22/02:30am 10.5 9.4 4.9 68 2.5 CALM 0 0 0 0 1009.6 1009.3 0.0
22/02:00am 11.5 10.5 5.6 67 2.8 CALM 0 0 0 0 1010.0 1009.7 0.0
22/01:30am 12.6 11.6 5.8 63 3.2 CALM 0 0 0 0 1010.7 1010.5 0.0
22/01:00am 12.6 11.6 5.5 62 3.3 CALM 0 0 0 0 1011.2 1011.0 0.0
22/12:30am 13.4 11.8 6.3 62 3.4 W 4 7 2 4 1011.5 1011.3 0.0
22/12:00am 14.7 11.8 6.5 58 4.0 W 11 13 6 7 1011.9 1011.7 0.0
 
Date/Time
EDT
Temp
°C
App
Temp
°C
Dew
Point
Rel
Hum
%
Delta-T
°C
Wind Press
QNH
hPa
Press
MSL
hPa
Rain
since 9 am
mm
Dir
 
Spd
km/h
Gust
km/h
Spd
kts
Gust
kts
21/11:30pm 16.2 13.3 6.3 52 4.9 W 11 13 6 7 1011.9 1011.7 0.0
21/11:00pm 17.3 14.5 6.8 50 5.2 WSW 11 17 6 9 1012.1 1011.9 0.0
21/10:30pm 17.8 15.3 6.7 48 5.5 W 9 11 5 6 1012.0 1011.8 0.0
21/10:00pm 16.0 13.4 5.9 51 4.9 NNW 9 13 5 7 1011.9 1011.7 0.0
21/09:30pm 19.8 17.6 6.2 41 6.8 WSW 7 9 4 5 1011.5 1011.3 0.0
21/09:00pm 20.5 18.3 6.1 39 7.3 WSW 7 9 4 5 1011.3 1011.1 0.0
21/08:30pm 21.9 19.5 5.3 34 8.3 W 7 11 4 6 1011.1 1010.9 0.0
21/08:00pm 23.4 19.8 4.9 30 9.3 WSW 13 19 7 10 1011.0 1010.8 0.0
21/07:30pm 24.0 20.1 5.4 30 9.4 W 15 19 8 10 1010.7 1010.5 0.0
21/07:00pm 24.8 20.4 4.5 27 10.2 W 17 43 9 23 1010.3 1010.0 0.0
21/06:30pm 24.5 19.5 4.8 28 9.9 W 20 26 11 14 1010.1 1009.8 0.0
21/06:00pm 25.4 22.2 5.1 27 10.4 W 11 35 6 19 1010.1 1009.8 0.0
21/05:30pm 24.9 19.9 4.6 27 10.2 WNW 20 26 11 14 1010.1 1009.8 0.0
21/05:00pm 24.2 20.5 4.6 28 9.8 WSW 13 19 7 10 1010.2 1009.9 0.0
21/04:30pm 25.0 20.6 4.7 27 10.2 NW 17 33 9 18 1010.4 1010.1 0.0
21/04:00pm 24.7 20.8 5.5 29 9.8 WSW 15 28 8 15 1010.7 1010.5 0.0
21/03:30pm 23.4 19.9 5.3 31 9.1 WSW 13 19 7 10 1010.9 1010.7 0.0
21/03:00pm 22.8 19.4 6.1 34 8.5 WNW 13 20 7 11 1011.2 1011.0 0.0
21/02:30pm 23.2 19.6 6.9 35 8.5 WNW 15 26 8 14 1011.4 1011.2 0.0
21/02:00pm 22.3 18.7 6.9 37 8.0 W 15 24 8 13 1011.6 1011.4 0.0
21/01:30pm 21.5 18.6 6.6 38 7.6 W 11 20 6 11 1011.9 1011.7 0.0
21/01:00pm 20.6 17.3 6.5 40 7.2 SW 13 30 7 16 1012.3 1012.1 0.0
21/12:30pm 20.0 16.6 7.7 45 6.4 W 15 24 8 13 1012.4 1012.2 0.0
21/12:00pm 18.6 14.8 7.7 49 5.6 W 17 26 9 14 1012.6 1012.4 0.0
21/11:30am 18.0 13.7 7.1 49 5.5 SSW 19 28 10 15 1012.8 1012.6 0.0
21/11:00am 17.0 13.5 7.4 53 4.8 SSW 15 22 8 12 1013.0 1012.8 0.0
21/10:30am 16.8 12.2 8.2 57 4.4 WSW 22 30 12 16 1013.1 1012.9 0.0
21/10:00am 16.7 12.7 9.1 61 4.0 WSW 20 30 11 16 1013.0 1012.8 0.0
21/09:30am 15.0 10.6 8.9 67 3.1 SW 22 26 12 14 1012.8 1012.6 0.0
21/09:00am 14.4 10.7 9.4 72 2.6 SW 19 26 10 14 1012.5 1012.3 3.2
21/08:30am 14.4 11.6 10.0 75 2.3 SW 15 20 8 11 1011.9 1011.7 3.2
21/08:00am 13.7 10.3 10.7 82 1.6 SW 19 24 10 13 1012.0 1011.8 3.2
21/07:30am 12.8 9.9 10.9 88 1.0 SW 17 22 9 12 1011.8 1011.6 3.2
21/07:00am 12.5 9.3 11.2 92 0.7 WSW 19 26 10 14 1011.6 1011.4 3.2
21/06:30am 12.2 10.1 11.1 93 0.6 WSW 13 19 7 10 1010.8 1010.6 3.2
21/06:00am 12.3 9.5 11.2 93 0.6 WSW 17 20 9 11 1010.4 1010.1 3.2
21/05:55am 12.5 10.2 11.6 94 0.5 WSW 15 20 8 11 1010.2 1009.9 3.2
21/05:35am 13.0 10.1 12.2 95 0.4 WSW 19 26 10 14 1009.8 1009.5 3.2
21/05:30am 13.2 9.7 12.3 94 0.5 WSW 22 30 12 16 1009.7 1009.4 3.2
21/05:00am 13.8 10.8 12.7 93 0.6 SW 20 30 11 16 1009.3 1009.0 3.2
21/04:53am 13.9 10.7 13.0 94 0.5 SW 22 30 12 16 1009.3 1009.0 3.2
21/04:30am 14.3 11.8 13.5 95 0.4 WSW 19 22 10 12 1008.9 1008.6 3.2
21/04:05am 14.2 11.7 13.4 95 0.4 WSW 19 24 10 13 1008.8 1008.5 3.2
21/04:00am 14.2 11.7 13.4 95 0.4 WSW 19 24 10 13 1008.7 1008.4 3.2
21/03:30am 14.6 12.4 13.3 92 0.7 WSW 17 22 9 12 1008.7 1008.4 3.2
21/03:00am 14.6 12.0 13.3 92 0.7 WSW 19 24 10 13 1008.5 1008.2 3.2
21/02:30am 14.6 11.0 13.0 90 0.9 WSW 24 32 13 17 1008.3 1008.0 3.2
21/02:00am 15.0 12.3 13.0 88 1.1 WSW 19 26 10 14 1008.4 1008.1 3.2
21/01:30am 15.1 12.4 13.0 87 1.2 WSW 19 32 10 17 1008.6 1008.3 3.2
21/01:00am 15.2 12.0 13.1 87 1.2 WSW 22 30 12 16 1008.4 1008.1 3.2
21/12:32am 15.3 10.5 12.8 85 1.4 W 30 48 16 26 1008.5 1008.2 3.2
21/12:30am 15.4 10.2 12.9 85 1.4 WSW 32 48 17 26 1008.5 1008.2 3.2
21/12:00am 15.8 12.1 14.0 89 1.0 W 26 35 14 19 1008.5 1008.2 3.2
 
Date/Time
EDT
Temp
°C
App
Temp
°C
Dew
Point
Rel
Hum
%
Delta-T
°C
Wind Press
QNH
hPa
Press
MSL
hPa
Rain
since 9 am
mm
Dir
 
Spd
km/h
Gust
km/h
Spd
kts
Gust
kts
20/11:30pm 16.1 13.0 14.5 90 0.9 W 24 32 13 17 1008.5 1008.2 3.2
20/11:00pm 16.6 14.5 15.1 91 0.9 W 20 30 11 16 1007.9 1007.6 3.2
20/10:30pm 17.2 15.9 15.9 92 0.8 W 17 22 9 12 1007.7 1007.4 3.2
20/10:00pm 17.9 17.3 16.6 92 0.8 W 15 19 8 10 1007.7 1007.4 3.0
20/09:30pm 18.8 17.6 17.6 93 0.7 W 20 24 11 13 1007.3 1007.0 3.0
20/09:00pm 18.7 19.3 17.7 94 0.6 N 11 15 6 8 1006.5 1006.2 2.0
20/08:30pm 19.1 19.0 17.9 93 0.7 N 15 19 8 10 1006.5 1006.2 2.0
20/08:00pm 19.6 18.7 18.1 91 0.9 NNW 20 24 11 13 1006.1 1005.8 2.0

Other Formats:

Comma delimited format used in spreadsheet applications
http://www.bom.gov.au/fwo/IDV60801/IDV60801.95839.axf

JavaScript Object Notation format (JSON) in row-major order
http://www.bom.gov.au/fwo/IDV60801/IDV60801.95839.json